Time;durP1;ratioP1;P1;durP2;ratioP2;P2;SDS_P1;SDS_P2;PMS_P1;PMS_P2;Temp;Humidity;BMP_temperature;BMP_pressure;BME280_temperature;BME280_humidity;BME280_pressure;Samples;Min_cycle;Max_cycle;Signal;HPM_P1;HPM_P2
2022/09/16 00:05:24;;;;;;;5.50;2.50;;;;;;;13.06;99.90;98818.92;659311;1276;139557;-83
2022/09/16 00:20:28;;;;;;;7.00;2.30;;;;;;;12.93;100.00;98822.38;660233;1277;139117;-83
2022/09/16 00:35:31;;;;;;;8.50;3.10;;;;;;;12.81;100.00;98830.95;659788;1277;138705;-84
2022/09/16 00:50:47;;;;;;;5.90;2.50;;;;;;;12.62;100.00;98835.88;659485;1277;139555;-83
2022/09/16 01:05:51;;;;;;;7.40;2.60;;;;;;;12.42;100.00;98846.92;658811;1277;140455;-82
2022/09/16 01:21:21;;;;;;;6.30;2.30;;;;;;;12.28;100.00;98847.25;658819;1277;139805;-82
2022/09/16 01:36:34;;;;;;;15.00;3.50;;;;;;;12.14;100.00;98845.19;659675;1277;139187;-83
2022/09/16 01:52:02;;;;;;;9.30;4.80;;;;;;;12.01;100.00;98839.11;659025;1277;139116;-83
2022/09/16 02:07:08;;;;;;;12.30;3.50;;;;;;;11.90;100.00;98844.41;658303;1277;139398;-83
2022/09/16 02:22:17;;;;;;;6.30;2.00;;;;;;;11.78;100.00;98838.45;658589;1277;140457;-83
2022/09/16 02:37:28;;;;;;;6.70;2.90;;;;;;;11.71;100.00;98835.84;659700;1277;140434;-84
2022/09/16 02:52:44;;;;;;;6.50;2.40;;;;;;;11.58;100.00;98840.89;659505;1277;139342;-83
2022/09/16 03:07:47;;;;;;;4.20;2.40;;;;;;;11.49;100.00;98845.45;659154;1277;139385;-83
2022/09/16 03:22:59;;;;;;;10.80;4.80;;;;;;;11.39;100.00;98845.33;659476;1276;139112;-83
2022/09/16 03:38:05;;;;;;;6.00;2.90;;;;;;;11.28;100.00;98839.61;661528;1277;138757;-84
2022/09/16 03:53:09;;;;;;;7.20;2.60;;;;;;;11.23;100.00;98850.50;658957;1277;139409;-84
2022/09/16 04:08:12;;;;;;;11.60;3.60;;;;;;;11.18;100.00;98851.58;658132;1276;139155;-84
2022/09/16 04:23:15;;;;;;;8.20;3.10;;;;;;;11.17;100.00;98862.95;663228;1276;140982;-82
2022/09/16 04:38:18;;;;;;;6.90;3.60;;;;;;;11.16;100.00;98867.34;666665;1276;139245;-83
2022/09/16 04:53:21;;;;;;;8.00;3.10;;;;;;;11.19;100.00;98876.14;658688;1277;139103;-83
2022/09/16 05:08:24;;;;;;;6.40;2.10;;;;;;;11.20;100.00;98875.89;660177;1276;139718;-83
2022/09/16 05:23:27;;;;;;;5.20;2.30;;;;;;;11.33;100.00;98872.61;660846;1277;139536;-83
2022/09/16 05:38:31;;;;;;;5.80;3.30;;;;;;;11.55;100.00;98869.89;660638;1277;139155;-83
2022/09/16 05:53:34;;;;;;;10.60;2.70;;;;;;;11.75;100.00;98872.27;660879;1274;138660;-84
2022/09/16 06:08:39;;;;;;;11.50;2.90;;;;;;;11.96;100.00;98875.90;660917;1277;141026;-85
2022/09/16 06:23:42;;;;;;;7.10;2.90;;;;;;;12.25;100.00;98869.81;660403;1276;139457;-83
2022/09/16 06:38:46;;;;;;;7.40;2.60;;;;;;;12.48;100.00;98876.94;659379;1276;139162;-84
2022/09/16 06:53:51;;;;;;;7.10;2.30;;;;;;;13.07;100.00;98874.70;659026;1277;140623;-83
2022/09/16 07:08:54;;;;;;;7.90;2.30;;;;;;;13.49;99.98;98879.75;660346;1277;138676;-84
2022/09/16 07:24:00;;;;;;;10.20;3.40;;;;;;;14.27;95.71;98877.04;660518;1277;141095;-84
2022/09/16 07:39:05;;;;;;;9.50;1.90;;;;;;;14.70;89.99;98880.37;659575;1276;139552;-85
2022/09/16 07:54:12;;;;;;;6.10;2.70;;;;;;;15.18;86.40;98881.21;660198;1276;140331;-82
2022/09/16 08:09:16;;;;;;;7.70;2.30;;;;;;;14.89;82.69;98879.54;658765;1277;140825;-81
2022/09/16 08:24:39;;;;;;;14.00;2.30;;;;;;;15.18;81.28;98886.65;656825;1278;138635;-81
2022/09/16 08:39:42;;;;;;;5.10;1.40;;;;;;;15.38;77.01;98888.24;658661;1276;139275;-82
2022/09/16 08:54:54;;;;;;;10.70;2.20;;;;;;;15.05;73.98;98890.35;659762;1277;138665;-79
2022/09/16 09:10:24;;;;;;;9.60;2.60;;;;;;;15.93;70.80;98880.98;670801;1276;141876;-82
2022/09/16 09:25:47;;;;;;;9.00;2.00;;;;;;;16.84;65.39;98872.80;659277;1277;138534;-81
2022/09/16 09:40:55;;;;;;;15.00;3.00;;;;;;;16.33;62.78;98885.17;658965;1276;139626;-81
2022/09/16 09:56:27;;;;;;;11.90;2.00;;;;;;;17.09;60.50;98876.92;659328;1276;138054;-82
2022/09/16 10:11:31;;;;;;;4.60;1.20;;;;;;;17.31;59.13;98886.73;659680;1276;139942;-82
2022/09/16 10:26:39;;;;;;;4.80;1.40;;;;;;;17.42;57.74;98898.10;658254;1277;140545;-80
2022/09/16 10:41:46;;;;;;;4.70;1.50;;;;;;;18.33;54.96;98901.74;658213;1277;139953;-81
2022/09/16 10:56:50;;;;;;;9.00;2.10;;;;;;;18.90;53.16;98901.60;658187;1277;139477;-82
2022/09/16 11:12:20;;;;;;;6.80;1.10;;;;;;;19.17;51.78;98900.01;658197;1277;139158;-81
2022/09/16 11:27:28;;;;;;;14.60;1.70;;;;;;;18.98;51.36;98902.52;661508;1277;138419;-81
2022/09/16 11:42:41;;;;;;;5.40;1.40;;;;;;;17.72;53.20;98907.65;661601;1277;139432;-80
2022/09/16 11:57:52;;;;;;;6.30;1.40;;;;;;;17.10;55.06;98905.26;660740;1275;1700303;-81
2022/09/16 12:13:14;;;;;;;2.60;1.10;;;;;;;17.08;56.16;98906.81;659564;1276;139326;-81
2022/09/16 12:28:56;;;;;;;3.80;1.40;;;;;;;17.36;55.51;98893.81;658136;1277;140403;-80
2022/09/16 12:44:17;;;;;;;8.50;2.20;;;;;;;17.94;53.77;98883.70;657447;1277;139410;-82
2022/09/16 12:59:39;;;;;;;5.10;1.80;;;;;;;19.08;51.38;98868.36;662146;1277;140155;-84
2022/09/16 13:14:48;;;;;;;6.40;2.50;;;;;;;18.96;49.62;98855.59;659318;1277;140400;-82
2022/09/16 13:30:13;;;;;;;2.90;1.40;;;;;;;19.14;49.90;98849.62;659509;1277;138984;-82
2022/09/16 13:45:36;;;;;;;4.40;1.60;;;;;;;18.34;51.31;98840.42;659835;1276;139755;-84
2022/09/16 14:00:57;;;;;;;5.80;2.00;;;;;;;20.53;47.29;98841.43;658409;1277;138799;-82
2022/09/16 14:16:01;;;;;;;4.90;2.20;;;;;;;23.67;42.59;98831.54;657797;1277;139266;-83
2022/09/16 14:31:11;;;;;;;34.90;16.00;;;;;;;20.74;45.12;98829.41;657575;1277;139462;-83
2022/09/16 14:46:16;;;;;;;5.10;2.10;;;;;;;20.79;45.23;98823.44;658893;1277;140057;-84
2022/09/16 15:01:27;;;;;;;4.90;2.00;;;;;;;20.85;45.76;98823.08;658231;1277;139930;-84
2022/09/16 15:16:31;;;;;;;6.20;2.60;;;;;;;19.04;49.31;98821.38;658886;1277;141779;-84
2022/09/16 15:31:40;;;;;;;7.00;2.00;;;;;;;18.14;52.59;98821.41;658199;1277;140031;-83
2022/09/16 15:46:47;;;;;;;41.90;18.40;;;;;;;18.95;50.68;98813.20;657984;1277;139866;-83
2022/09/16 16:01:55;;;;;;;15.50;6.70;;;;;;;17.99;52.58;98806.85;659157;1277;140674;-83
2022/09/16 16:17:15;;;;;;;40.00;21.10;;;;;;;17.43;54.53;98806.77;657782;1277;139655;-84
2022/09/16 16:32:18;;;;;;;;;;;;;;;17.13;55.56;98804.95;659944;1277;139148;-85
2022/09/16 16:47:22;;;;;;;12.80;4.70;;;;;;;16.87;56.46;98806.83;657861;1277;126593;-84
2022/09/16 17:02:27;;;;;;;9.20;4.10;;;;;;;16.58;56.93;98813.71;659049;1277;139118;-85
2022/09/16 17:17:30;;;;;;;16.50;8.80;;;;;;;16.36;57.51;98818.52;658414;1277;139973;-85
2022/09/16 17:32:35;;;;;;;26.90;10.10;;;;;;;16.18;58.90;98824.63;657902;1277;139484;-85
2022/09/16 17:47:39;;;;;;;8.60;4.40;;;;;;;15.97;60.30;98826.43;659144;1277;140345;-85
2022/09/16 18:02:44;;;;;;;7.20;2.70;;;;;;;15.78;61.61;98835.14;665346;1277;139549;-84
2022/09/16 18:17:48;;;;;;;4.80;3.10;;;;;;;15.58;63.14;98828.90;660938;1277;140087;-85
2022/09/16 18:32:53;;;;;;;5.20;2.90;;;;;;;15.42;64.22;98828.59;661207;1277;139632;-81
2022/09/16 18:47:58;;;;;;;6.40;2.80;;;;;;;15.22;65.65;98832.94;662474;1277;139944;-85
2022/09/16 19:03:02;;;;;;;11.70;4.80;;;;;;;15.14;67.20;98839.80;665325;1277;139836;-85
2022/09/16 19:18:06;;;;;;;7.70;2.10;;;;;;;14.97;68.33;98832.93;660123;1277;142383;-84
2022/09/16 19:33:11;;;;;;;4.90;2.10;;;;;;;14.89;68.79;98835.84;658296;1277;139815;-85
2022/09/16 19:48:15;;;;;;;14.80;3.50;;;;;;;14.82;69.36;98828.02;659248;1277;140064;-83
2022/09/16 20:03:19;;;;;;;4.60;1.90;;;;;;;14.75;69.70;98817.19;656896;1277;139781;-84
2022/09/16 20:18:23;;;;;;;7.30;2.40;;;;;;;14.51;69.83;98809.39;657604;1277;139436;-85
2022/09/16 20:33:27;;;;;;;5.70;2.70;;;;;;;14.26;70.27;98817.84;656069;1277;139264;-85
2022/09/16 20:48:35;;;;;;;7.20;3.90;;;;;;;14.05;71.25;98832.52;656075;1277;142140;-84
2022/09/16 21:03:41;;;;;;;10.00;3.80;;;;;;;13.79;71.63;98833.20;656374;1277;140700;-85
2022/09/16 21:18:44;;;;;;;8.50;3.00;;;;;;;13.72;72.78;98837.68;655403;1277;140592;-84
2022/09/16 21:33:50;;;;;;;10.10;3.60;;;;;;;13.70;73.18;98837.67;656795;1276;140524;-84
2022/09/16 21:48:57;;;;;;;6.80;3.10;;;;;;;13.71;74.24;98824.79;657316;1277;141333;-85
2022/09/16 22:04:03;;;;;;;5.60;2.90;;;;;;;13.67;75.24;98827.38;656849;1279;140306;-84
2022/09/16 22:19:17;;;;;;;6.80;2.90;;;;;;;13.57;76.67;98821.44;657427;1277;140894;-85
2022/09/16 22:34:20;;;;;;;6.10;2.90;;;;;;;13.27;78.70;98816.05;659554;1276;140112;-85
2022/09/16 22:49:23;;;;;;;10.60;3.30;;;;;;;12.91;80.42;98818.35;657539;1277;139843;-84
2022/09/16 23:04:27;;;;;;;15.60;6.30;;;;;;;12.48;82.79;98821.86;657676;1277;140174;-85
2022/09/16 23:19:30;;;;;;;21.30;10.40;;;;;;;12.20;83.80;98814.86;657310;1277;140222;-84
2022/09/16 23:34:33;;;;;;;7.00;2.70;;;;;;;12.09;85.92;98816.81;657469;1277;140910;-84
2022/09/16 23:49:36;;;;;;;6.90;3.30;;;;;;;12.26;86.17;98804.08;655397;1277;2120792;-85
